createdAt,value
2018-10-09T00:00:09.977Z,16.40
2018-10-09T00:02:38.622Z,16.23
2018-10-09T00:05:07.512Z,15.63
2018-10-09T00:07:38.949Z,16.97
2018-10-09T00:10:07.645Z,17.17
2018-10-09T00:12:36.281Z,16.67
2018-10-09T00:15:04.933Z,16.90
2018-10-09T00:17:33.458Z,16.87
2018-10-09T00:20:02.240Z,15.93
2018-10-09T00:22:31.020Z,18.40
2018-10-09T00:24:59.555Z,17.83
2018-10-09T00:27:29.141Z,18.53
2018-10-09T00:29:57.741Z,17.50
2018-10-09T00:32:26.247Z,15.43
2018-10-09T00:34:54.724Z,19.10
2018-10-09T00:37:24.322Z,20.53
2018-10-09T00:39:52.916Z,18.13
2018-10-09T00:42:21.666Z,17.43
2018-10-09T00:44:50.182Z,16.93
2018-10-09T00:47:18.806Z,16.43
2018-10-09T00:49:47.465Z,14.30
2018-10-09T00:52:15.970Z,14.00
2018-10-09T00:54:44.610Z,16.10
2018-10-09T00:57:13.205Z,16.47
2018-10-09T00:59:41.931Z,13.93
2018-10-09T01:02:10.633Z,14.73
2018-10-09T01:04:39.371Z,15.17
2018-10-09T01:07:08.037Z,15.43
2018-10-09T01:09:36.539Z,15.20
2018-10-09T01:12:06.155Z,16.43
2018-10-09T01:14:34.713Z,14.20
2018-10-09T01:17:03.606Z,13.93
2018-10-09T01:19:32.214Z,15.47
2018-10-09T01:22:00.819Z,19.13
2018-10-09T01:24:29.320Z,18.73
2018-10-09T01:26:57.962Z,18.03
2018-10-09T01:29:26.642Z,17.70
2018-10-09T01:31:55.305Z,17.13
2018-10-09T01:34:23.849Z,16.00
2018-10-09T01:36:52.690Z,19.97
2018-10-09T01:39:21.357Z,21.43
2018-10-09T01:41:50.001Z,22.10
2018-10-09T01:44:18.621Z,22.60
2018-10-09T01:46:47.153Z,21.10
2018-10-09T01:49:16.927Z,22.63
2018-10-09T01:51:45.869Z,21.40
2018-10-09T01:54:14.598Z,22.70
2018-10-09T01:56:43.269Z,20.23
2018-10-09T01:59:11.820Z,17.80
2018-10-09T02:01:40.617Z,17.63
2018-10-09T02:04:12.013Z,18.03
2018-10-09T02:06:40.674Z,17.43
2018-10-09T02:09:09.973Z,16.90
2018-10-09T02:11:38.647Z,19.90
2018-10-09T02:14:07.348Z,18.90
2018-10-09T02:16:35.893Z,19.07
2018-10-09T02:19:04.389Z,17.87
2018-10-09T02:21:33.006Z,19.90
2018-10-09T02:24:01.783Z,19.87
2018-10-09T02:26:30.398Z,20.73
2018-10-09T02:28:59.839Z,22.60
2018-10-09T02:31:28.335Z,19.60
2018-10-09T02:33:56.873Z,18.30
2018-10-09T02:36:25.432Z,19.20
2018-10-09T02:38:53.898Z,19.60
2018-10-09T02:41:22.670Z,19.43
2018-10-09T02:43:51.182Z,18.20
2018-10-09T02:46:19.811Z,18.70
2018-10-09T02:48:48.442Z,19.30
2018-10-09T02:51:17.052Z,20.20
2018-10-09T02:53:45.648Z,21.77
2018-10-09T02:56:15.059Z,19.43
2018-10-09T02:58:43.622Z,19.43
2018-10-09T03:01:13.154Z,21.07
2018-10-09T03:03:42.278Z,21.63
2018-10-09T03:06:11.008Z,25.03
2018-10-09T03:08:39.531Z,23.43
2018-10-09T03:11:08.266Z,24.03
2018-10-09T03:13:36.849Z,23.60
2018-10-09T03:16:06.582Z,23.57
2018-10-09T03:18:35.267Z,22.47
2018-10-09T03:21:03.837Z,21.63
2018-10-09T03:23:33.342Z,22.13
2018-10-09T03:26:01.974Z,22.20
2018-10-09T03:28:30.521Z,19.70
2018-10-09T03:30:59.070Z,18.63
2018-10-09T03:33:27.542Z,19.40
2018-10-09T03:35:56.116Z,19.77
2018-10-09T03:38:24.761Z,18.83
2018-10-09T03:40:53.502Z,19.43
2018-10-09T03:43:22.005Z,17.87
2018-10-09T03:45:50.649Z,18.43
2018-10-09T03:48:19.421Z,18.20
2018-10-09T03:50:47.966Z,17.13
2018-10-09T03:53:16.630Z,16.87
2018-10-09T03:55:45.243Z,17.70
2018-10-09T03:58:14.717Z,20.13
2018-10-09T04:00:43.297Z,21.17
2018-10-09T04:03:11.990Z,21.27
2018-10-09T04:05:40.705Z,19.57
2018-10-09T04:08:09.310Z,27.83
2018-10-09T04:10:37.929Z,30.87
2018-10-09T04:13:06.671Z,32.80
2018-10-09T04:15:35.224Z,32.83
2018-10-09T04:18:03.861Z,36.53
2018-10-09T04:20:32.515Z,36.93
2018-10-09T04:23:01.198Z,36.43
2018-10-09T04:25:30.280Z,36.67
2018-10-09T04:27:58.893Z,34.40
2018-10-09T04:30:27.462Z,29.80
2018-10-09T04:32:56.157Z,28.60
2018-10-09T04:35:25.044Z,26.67
2018-10-09T04:37:53.549Z,26.10
2018-10-09T04:40:22.191Z,27.97
2018-10-09T04:42:50.710Z,25.90
2018-10-09T04:45:20.201Z,25.60
2018-10-09T04:47:48.870Z,25.77
2018-10-09T04:50:17.677Z,28.50
2018-10-09T04:52:46.240Z,30.27
2018-10-09T04:55:14.776Z,29.10
2018-10-09T04:57:44.402Z,26.70
2018-10-09T05:00:12.886Z,28.33
2018-10-09T05:02:41.495Z,27.33
2018-10-09T05:05:10.070Z,32.50
2018-10-09T05:07:38.681Z,37.63
2018-10-09T05:10:08.993Z,43.30
2018-10-09T05:12:38.025Z,45.37
2018-10-09T05:15:07.318Z,47.63
2018-10-09T05:17:36.204Z,46.27
2018-10-09T05:20:06.642Z,43.07
2018-10-09T05:22:35.147Z,49.10
2018-10-09T05:25:03.657Z,52.37
2018-10-09T05:27:32.566Z,53.37
2018-10-09T05:30:01.165Z,53.47
2018-10-09T05:32:29.618Z,52.47
2018-10-09T05:34:58.372Z,55.30
2018-10-09T05:37:26.893Z,57.03
2018-10-09T05:39:56.226Z,52.90
2018-10-09T05:42:24.819Z,46.23
2018-10-09T05:44:53.408Z,42.10
2018-10-09T05:47:21.962Z,47.90
2018-10-09T05:49:50.757Z,57.10
2018-10-09T05:52:19.330Z,64.63
2018-10-09T05:54:47.819Z,66.57
2018-10-09T05:57:16.417Z,68.30
2018-10-09T05:59:45.056Z,70.10
2018-10-09T06:02:13.645Z,64.63
2018-10-09T06:04:42.149Z,66.33
2018-10-09T06:07:10.878Z,65.70
2018-10-09T06:09:41.530Z,62.90
2018-10-09T06:12:10.234Z,61.60
2018-10-09T06:14:38.747Z,61.97
2018-10-09T06:17:07.350Z,60.33
2018-10-09T06:19:36.044Z,58.83
2018-10-09T06:22:04.723Z,58.80
2018-10-09T06:24:33.498Z,58.37
2018-10-09T06:27:02.112Z,58.80
2018-10-09T06:29:30.722Z,55.90
2018-10-09T06:31:59.941Z,57.93
2018-10-09T06:34:28.546Z,55.67
2018-10-09T06:36:57.134Z,54.13
2018-10-09T06:39:26.853Z,55.33
2018-10-09T06:41:55.371Z,52.70
2018-10-09T06:44:23.921Z,51.30
2018-10-09T06:46:52.512Z,54.43
2018-10-09T06:49:21.267Z,53.60
2018-10-09T06:51:50.065Z,56.40
2018-10-09T06:54:18.866Z,55.53
2018-10-09T06:56:47.367Z,57.07
2018-10-09T06:59:15.991Z,58.23
2018-10-09T07:01:45.265Z,57.50
2018-10-09T07:04:14.281Z,54.43
2018-10-09T07:06:42.826Z,55.67
2018-10-09T07:09:12.285Z,54.67
2018-10-09T07:11:40.879Z,53.40
2018-10-09T07:14:09.469Z,53.10
2018-10-09T07:16:38.181Z,50.93
2018-10-09T07:19:06.776Z,57.07
2018-10-09T07:21:35.250Z,51.13
2018-10-09T07:24:03.889Z,52.13
2018-10-09T07:26:33.602Z,53.47
2018-10-09T07:29:02.190Z,52.80
2018-10-09T07:31:30.813Z,53.77
2018-10-09T07:33:59.434Z,56.50
2018-10-09T07:36:27.942Z,51.10
2018-10-09T07:38:56.571Z,51.80
2018-10-09T07:41:25.145Z,51.93
2018-10-09T07:43:53.874Z,52.27
2018-10-09T07:46:22.498Z,52.63
2018-10-09T07:48:51.065Z,53.83
2018-10-09T07:51:19.917Z,50.90
2018-10-09T07:53:48.408Z,50.63
2018-10-09T07:56:17.194Z,50.80
2018-10-09T07:58:45.782Z,50.53
2018-10-09T08:01:14.350Z,52.30
2018-10-09T08:03:42.906Z,50.80
2018-10-09T08:06:11.534Z,52.07
2018-10-09T08:08:40.419Z,51.43
2018-10-09T08:11:08.997Z,51.70
2018-10-09T08:13:37.534Z,52.10
2018-10-09T08:16:06.099Z,50.57
2018-10-09T08:18:34.740Z,51.07
2018-10-09T08:21:03.391Z,50.67
2018-10-09T08:23:32.145Z,50.57
2018-10-09T08:26:00.669Z,53.27
2018-10-09T08:28:29.583Z,51.93
2018-10-09T08:30:58.649Z,51.40
2018-10-09T08:33:27.354Z,49.50
2018-10-09T08:35:56.008Z,50.00
2018-10-09T08:38:24.609Z,49.20
2018-10-09T08:40:53.153Z,49.30
2018-10-09T08:43:21.627Z,48.93
2018-10-09T08:45:50.075Z,48.20
2018-10-09T08:48:18.744Z,50.20
2018-10-09T08:50:47.339Z,49.17
2018-10-09T08:53:16.040Z,50.00
2018-10-09T08:55:44.760Z,48.47
2018-10-09T08:58:13.311Z,51.47
2018-10-09T09:00:41.849Z,48.17
2018-10-09T09:03:10.369Z,49.10
2018-10-09T09:05:38.885Z,49.37
2018-10-09T09:08:07.445Z,47.17
2018-10-09T09:10:36.141Z,49.67
2018-10-09T09:13:04.687Z,50.53
2018-10-09T09:15:33.239Z,52.20
2018-10-09T09:18:05.083Z,51.23
2018-10-09T09:20:33.826Z,50.87
2018-10-09T09:23:02.386Z,48.33
2018-10-09T09:25:30.937Z,48.40
2018-10-09T09:27:59.529Z,50.20
2018-10-09T09:30:28.250Z,48.43
2018-10-09T09:32:56.842Z,46.83
2018-10-09T09:35:25.472Z,45.53
2018-10-09T09:37:54.185Z,45.40
2018-10-09T09:40:22.785Z,43.30
2018-10-09T09:42:51.335Z,42.30
2018-10-09T09:45:19.849Z,42.97
2018-10-09T09:47:48.381Z,41.93
2018-10-09T09:50:17.040Z,43.37
2018-10-09T09:52:45.618Z,45.07
2018-10-09T09:55:14.312Z,46.23
2018-10-09T09:57:42.912Z,45.37
2018-10-09T10:00:16.627Z,47.93
2018-10-09T10:02:45.201Z,48.47
2018-10-09T10:05:13.765Z,48.87
2018-10-09T10:07:42.470Z,47.77
2018-10-09T10:10:11.050Z,49.43
2018-10-09T10:12:39.679Z,47.43
2018-10-09T10:15:08.471Z,43.83
2018-10-09T10:17:37.042Z,42.43
2018-10-09T10:20:05.619Z,39.80
2018-10-09T10:22:34.375Z,38.77
2018-10-09T10:25:03.074Z,37.60
2018-10-09T10:27:32.993Z,36.00
2018-10-09T10:30:01.749Z,36.17
2018-10-09T10:32:30.370Z,36.13
2018-10-09T10:34:59.097Z,36.47
2018-10-09T10:37:27.679Z,35.00
2018-10-09T10:39:57.053Z,33.33
2018-10-09T10:42:25.842Z,32.73
2018-10-09T10:44:54.373Z,31.30
2018-10-09T10:47:22.937Z,32.13
2018-10-09T10:49:51.547Z,31.97
2018-10-09T10:52:20.372Z,31.10
2018-10-09T10:54:48.940Z,28.63
2018-10-09T10:57:17.509Z,29.00
2018-10-09T10:59:46.090Z,28.90
2018-10-09T11:02:14.570Z,28.63
2018-10-09T11:04:43.166Z,28.90
2018-10-09T11:07:11.868Z,27.27
2018-10-09T11:09:40.559Z,28.20
2018-10-09T11:12:09.142Z,28.00
2018-10-09T11:14:38.817Z,27.43
2018-10-09T11:17:07.407Z,26.40
2018-10-09T11:19:36.261Z,25.90
2018-10-09T11:22:04.821Z,27.07
2018-10-09T11:24:33.361Z,27.07
2018-10-09T11:27:01.862Z,26.40
2018-10-09T11:29:30.482Z,23.80
2018-10-09T11:31:59.315Z,25.07
2018-10-09T11:34:27.895Z,24.50
2018-10-09T11:36:56.403Z,25.23
2018-10-09T11:39:24.927Z,23.20
2018-10-09T11:41:53.842Z,21.00
2018-10-09T11:44:22.595Z,18.07
2018-10-09T11:46:51.215Z,16.60
2018-10-09T11:49:19.877Z,17.33
2018-10-09T11:51:48.525Z,18.73
2018-10-09T11:54:17.042Z,17.47
2018-10-09T11:56:45.922Z,17.17
2018-10-09T11:59:14.453Z,17.40
2018-10-09T12:01:43.034Z,17.40
2018-10-09T12:04:11.740Z,16.97
2018-10-09T12:06:40.483Z,17.00
2018-10-09T12:09:11.669Z,17.77
2018-10-09T12:11:41.119Z,17.12
2018-10-09T12:14:10.210Z,16.75
2018-10-09T12:16:38.721Z,16.65
2018-10-09T12:19:07.410Z,16.73
2018-10-09T12:21:36.604Z,15.03
2018-10-09T12:24:05.015Z,16.47
2018-10-09T12:26:33.872Z,16.80
2018-10-09T12:29:02.499Z,14.80
2018-10-09T12:31:31.179Z,12.28
2018-10-09T12:34:00.310Z,13.98
2018-10-09T12:36:28.913Z,15.30
2018-10-09T12:38:57.408Z,11.25
2018-10-09T12:41:25.982Z,11.85
2018-10-09T12:43:54.681Z,11.25
2018-10-09T12:46:23.562Z,14.03
2018-10-09T12:48:53.226Z,13.65
2018-10-09T12:51:21.740Z,12.88
2018-10-09T12:53:50.437Z,13.10
2018-10-09T12:56:19.064Z,13.10
2018-10-09T12:58:47.765Z,14.00
2018-10-09T13:01:16.294Z,12.93
2018-10-09T13:03:44.855Z,11.97
2018-10-09T13:06:14.095Z,12.67
2018-10-09T13:08:42.704Z,11.37
2018-10-09T13:11:11.476Z,9.63
2018-10-09T13:13:40.460Z,9.77
2018-10-09T13:16:09.090Z,11.67
2018-10-09T13:18:37.849Z,10.93
2018-10-09T13:21:07.043Z,11.07
2018-10-09T13:23:35.835Z,11.20
2018-10-09T13:26:04.415Z,12.07
2018-10-09T13:28:33.108Z,11.97
2018-10-09T13:31:01.764Z,11.80
2018-10-09T13:33:30.333Z,11.83
2018-10-09T13:35:58.949Z,10.20
2018-10-09T13:38:28.531Z,10.23
2018-10-09T13:40:57.386Z,10.10
2018-10-09T13:43:26.221Z,10.43
2018-10-09T13:45:54.794Z,9.63
2018-10-09T13:48:23.412Z,9.97
2018-10-09T13:50:52.090Z,10.20
2018-10-09T13:53:20.702Z,9.70
2018-10-09T13:55:49.285Z,9.80
2018-10-09T13:58:18.002Z,9.43
2018-10-09T14:00:46.625Z,11.33
2018-10-09T14:03:15.451Z,11.60
2018-10-09T14:05:44.033Z,10.97
2018-10-09T14:08:12.659Z,11.30
2018-10-09T14:10:42.484Z,17.87
2018-10-09T14:13:11.138Z,12.77
2018-10-09T14:15:39.930Z,12.10
2018-10-09T14:18:08.443Z,11.90
2018-10-09T14:20:37.017Z,12.80
2018-10-09T14:23:05.750Z,12.63
2018-10-09T14:25:34.255Z,11.30
2018-10-09T14:28:03.078Z,12.57
2018-10-09T14:30:32.616Z,11.73
2018-10-09T14:33:01.218Z,12.00
2018-10-09T14:35:29.814Z,12.30
2018-10-09T14:37:58.436Z,12.43
2018-10-09T14:40:27.046Z,11.90
2018-10-09T14:42:56.203Z,13.07
2018-10-09T14:45:25.762Z,13.27
2018-10-09T14:47:54.403Z,14.70
2018-10-09T14:50:22.997Z,13.17
2018-10-09T14:52:51.726Z,12.40
2018-10-09T14:55:20.318Z,13.30
2018-10-09T14:57:49.125Z,13.33
2018-10-09T15:00:17.705Z,13.40
2018-10-09T15:02:46.241Z,14.10
2018-10-09T15:05:14.838Z,13.40
2018-10-09T15:07:43.525Z,13.37
2018-10-09T15:10:12.325Z,13.63
2018-10-09T15:12:40.856Z,13.73
2018-10-09T15:15:09.562Z,14.37
2018-10-09T15:17:38.162Z,13.90
2018-10-09T15:20:08.536Z,14.27
2018-10-09T15:22:37.104Z,16.93
2018-10-09T15:25:05.716Z,17.73
2018-10-09T15:27:34.247Z,21.67
2018-10-09T15:30:02.843Z,22.40
2018-10-09T15:32:31.572Z,24.43
2018-10-09T15:35:00.212Z,25.03
2018-10-09T15:37:28.773Z,24.57
2018-10-09T15:39:57.494Z,24.27
2018-10-09T15:42:26.118Z,22.93
2018-10-09T15:44:54.845Z,22.50
2018-10-09T15:47:23.496Z,20.13
2018-10-09T15:49:52.166Z,20.83
2018-10-09T15:52:20.763Z,21.27
2018-10-09T15:54:49.304Z,20.87
2018-10-09T15:57:17.801Z,21.50
2018-10-09T15:59:47.486Z,23.73
2018-10-09T16:02:16.013Z,23.73
2018-10-09T16:04:44.630Z,24.73
2018-10-09T16:07:13.231Z,24.67
2018-10-09T16:09:41.874Z,24.83
2018-10-09T16:12:11.521Z,24.73
2018-10-09T16:14:40.053Z,24.67
2018-10-09T16:17:08.627Z,23.37
2018-10-09T16:19:37.278Z,21.73
2018-10-09T16:22:05.987Z,21.07
2018-10-09T16:24:34.562Z,18.90
2018-10-09T16:27:03.184Z,19.87
2018-10-09T16:29:31.674Z,19.00
2018-10-09T16:32:00.757Z,21.43
2018-10-09T16:34:29.334Z,24.57
2018-10-09T16:36:57.927Z,27.83
2018-10-09T16:39:27.217Z,33.37
2018-10-09T16:41:57.714Z,40.80
2018-10-09T16:44:26.187Z,41.23
2018-10-09T16:46:54.713Z,40.30
2018-10-09T16:49:23.323Z,39.87
2018-10-09T16:51:52.003Z,40.17
2018-10-09T16:54:20.600Z,39.90
2018-10-09T16:56:49.127Z,37.97
2018-10-09T16:59:17.615Z,29.07
2018-10-09T17:01:47.174Z,26.30
2018-10-09T17:04:15.863Z,25.23
2018-10-09T17:06:44.715Z,27.13
2018-10-09T17:09:13.394Z,27.83
2018-10-09T17:11:42.559Z,29.47
2018-10-09T17:14:11.714Z,29.63
2018-10-09T17:16:40.376Z,46.83
2018-10-09T17:19:09.132Z,35.87
2018-10-09T17:21:37.839Z,42.13
2018-10-09T17:24:06.537Z,47.93
2018-10-09T17:26:35.251Z,39.60
2018-10-09T17:29:03.899Z,42.13
2018-10-09T17:31:32.486Z,42.33
2018-10-09T17:34:01.118Z,39.60
2018-10-09T17:36:29.634Z,40.40
2018-10-09T17:38:58.445Z,41.87
2018-10-09T17:41:26.982Z,39.17
2018-10-09T17:43:55.516Z,26.10
2018-10-09T17:46:24.196Z,25.57
2018-10-09T17:48:52.697Z,29.23
2018-10-09T17:51:21.217Z,34.77
2018-10-09T17:53:49.872Z,32.43
2018-10-09T17:56:18.321Z,30.30
2018-10-09T17:58:46.931Z,30.33
2018-10-09T18:01:15.634Z,30.10
2018-10-09T18:03:46.202Z,29.13
2018-10-09T18:06:14.863Z,28.80
2018-10-09T18:08:43.727Z,28.93
2018-10-09T18:11:12.553Z,30.60
2018-10-09T18:13:41.333Z,32.33
2018-10-09T18:16:10.071Z,39.27
2018-10-09T18:18:41.990Z,42.40
2018-10-09T18:21:10.709Z,43.33
2018-10-09T18:23:40.522Z,41.97
2018-10-09T18:26:09.684Z,43.33
2018-10-09T18:28:38.359Z,39.90
2018-10-09T18:31:06.862Z,42.73
2018-10-09T18:33:35.569Z,46.77
2018-10-09T18:36:04.231Z,48.87
2018-10-09T18:38:33.020Z,48.80
2018-10-09T18:41:01.723Z,45.83
2018-10-09T18:43:30.227Z,46.50
2018-10-09T18:45:58.939Z,51.80
2018-10-09T18:48:27.621Z,57.37
2018-10-09T18:50:57.239Z,58.03
2018-10-09T18:53:25.922Z,58.97
2018-10-09T18:55:54.646Z,57.87
2018-10-09T18:58:23.129Z,55.53
2018-10-09T19:00:51.787Z,52.00
2018-10-09T19:05:55.425Z,45.97
2018-10-09T19:08:24.023Z,43.33
2018-10-09T19:10:52.916Z,39.93
2018-10-09T19:13:21.496Z,35.33
2018-10-09T19:15:49.970Z,34.43
2018-10-09T19:18:18.555Z,34.17
2018-10-09T19:20:47.356Z,31.90
2018-10-09T19:23:15.926Z,33.13
2018-10-09T19:25:44.577Z,33.03
2018-10-09T19:28:13.283Z,33.90
2018-10-09T19:30:41.865Z,33.03
2018-10-09T19:33:10.453Z,32.70
2018-10-09T19:35:39.225Z,31.80
2018-10-09T19:38:08.007Z,33.17
2018-10-09T19:40:36.665Z,32.60
2018-10-09T19:43:05.377Z,32.43
2018-10-09T19:45:34.038Z,31.57
2018-10-09T19:48:02.877Z,31.87
2018-10-09T19:50:31.585Z,33.10
2018-10-09T19:53:00.399Z,32.03
2018-10-09T19:55:29.152Z,33.20
2018-10-09T19:57:57.910Z,33.00
2018-10-09T20:00:26.685Z,32.50
2018-10-09T20:02:55.405Z,33.53
2018-10-09T20:05:23.982Z,33.90
2018-10-09T20:07:52.640Z,34.07
2018-10-09T20:10:22.307Z,36.97
2018-10-09T20:12:51.658Z,38.53
2018-10-09T20:15:20.421Z,38.97
2018-10-09T20:17:49.074Z,38.73
2018-10-09T20:20:17.622Z,38.70
2018-10-09T20:22:46.442Z,38.53
2018-10-09T20:25:15.004Z,36.53
2018-10-09T20:27:43.637Z,34.80
2018-10-09T20:30:12.843Z,37.03
2018-10-09T20:32:41.403Z,38.07
2018-10-09T20:35:10.188Z,42.23
2018-10-09T20:37:39.061Z,44.47
2018-10-09T20:40:08.646Z,45.13
2018-10-09T20:42:37.355Z,43.00
2018-10-09T20:45:06.225Z,46.13
2018-10-09T20:47:39.816Z,43.20
2018-10-09T20:50:08.383Z,41.93
2018-10-09T20:52:38.208Z,40.20
2018-10-09T20:55:06.907Z,40.27
2018-10-09T20:57:35.487Z,39.20
2018-10-09T21:00:04.728Z,40.10
2018-10-09T21:02:33.722Z,40.30
2018-10-09T21:05:02.288Z,38.77
2018-10-09T21:07:30.874Z,40.73
2018-10-09T21:09:59.434Z,36.83
2018-10-09T21:12:28.082Z,35.50
2018-10-09T21:14:56.780Z,36.60
2018-10-09T21:17:25.351Z,43.17
2018-10-09T21:19:54.005Z,39.57
2018-10-09T21:22:23.406Z,41.40
2018-10-09T21:24:51.991Z,39.80
2018-10-09T21:27:20.570Z,39.23
2018-10-09T21:29:49.233Z,41.47
2018-10-09T21:32:17.760Z,41.97
2018-10-09T21:34:46.590Z,40.53
2018-10-09T21:37:15.114Z,37.43
2018-10-09T21:39:43.797Z,34.30
2018-10-09T21:42:12.590Z,31.13
2018-10-09T21:44:41.070Z,30.57
2018-10-09T21:47:09.693Z,29.47
2018-10-09T21:49:38.490Z,33.97
2018-10-09T21:52:07.186Z,30.20
2018-10-09T21:54:35.714Z,31.63
2018-10-09T21:57:04.206Z,37.13
2018-10-09T21:59:32.741Z,38.67
2018-10-09T22:02:02.297Z,38.17
2018-10-09T22:04:30.975Z,36.93
2018-10-09T22:06:59.527Z,39.67
2018-10-09T22:09:28.050Z,35.77
2018-10-09T22:11:56.684Z,38.00
2018-10-09T22:14:26.333Z,39.60
2018-10-09T22:16:55.088Z,37.63
2018-10-09T22:19:23.844Z,37.87
2018-10-09T22:21:52.681Z,34.90
2018-10-09T22:24:21.297Z,28.43
2018-10-09T22:26:51.020Z,27.77
2018-10-09T22:29:22.117Z,28.77
2018-10-09T22:31:51.852Z,28.73
2018-10-09T22:34:20.799Z,35.13
2018-10-09T22:36:49.514Z,40.57
2018-10-09T22:39:18.088Z,41.67
2018-10-09T22:41:46.606Z,41.83
2018-10-09T22:44:15.311Z,39.03
2018-10-09T22:46:43.884Z,35.90
2018-10-09T22:49:12.491Z,35.77
2018-10-09T22:51:41.137Z,41.73
2018-10-09T22:54:09.732Z,45.83
2018-10-09T22:56:38.343Z,45.30
2018-10-09T22:59:07.029Z,40.17
2018-10-09T23:01:35.699Z,37.17
2018-10-09T23:04:04.317Z,32.70
2018-10-09T23:06:32.850Z,32.13
2018-10-09T23:09:01.605Z,32.70
2018-10-09T23:11:30.125Z,33.10
2018-10-09T23:13:58.740Z,34.33
2018-10-09T23:16:27.332Z,33.43
2018-10-09T23:18:56.020Z,34.83
2018-10-09T23:21:24.533Z,33.30
2018-10-09T23:23:53.134Z,35.47
2018-10-09T23:26:21.712Z,34.90
2018-10-09T23:28:51.337Z,37.93
2018-10-09T23:31:21.014Z,39.27
2018-10-09T23:33:49.569Z,42.57
2018-10-09T23:36:19.281Z,41.93
2018-10-09T23:38:47.809Z,47.90
2018-10-09T23:41:16.365Z,47.43
2018-10-09T23:43:45.888Z,43.33
2018-10-09T23:46:14.570Z,49.33
2018-10-09T23:48:43.196Z,44.43
2018-10-09T23:51:11.773Z,41.30
2018-10-09T23:53:41.397Z,40.53
2018-10-09T23:56:09.958Z,38.37
2018-10-09T23:58:38.604Z,38.63
